sensor_id;sensor_type;location;lat;lon;timestamp;pressure;altitude;pressure_sealevel;temperature;humidity
17615;BME280;8926;49.720;6.576;2024-01-25T00:01:04;101036.72;;;9.35;87.84
17615;BME280;8926;49.720;6.576;2024-01-25T00:03:29;101036.75;;;9.33;88.03
17615;BME280;8926;49.720;6.576;2024-01-25T00:05:54;101034.03;;;9.36;87.96
17615;BME280;8926;49.720;6.576;2024-01-25T00:08:19;101031.41;;;9.36;88.09
17615;BME280;8926;49.720;6.576;2024-01-25T00:10:46;101033.88;;;9.41;87.50
17615;BME280;8926;49.720;6.576;2024-01-25T00:13:11;101037.34;;;9.41;87.21
17615;BME280;8926;49.720;6.576;2024-01-25T00:15:36;101026.91;;;9.41;87.56
17615;BME280;8926;49.720;6.576;2024-01-25T00:18:02;101028.47;;;9.47;86.89
17615;BME280;8926;49.720;6.576;2024-01-25T00:20:27;101018.13;;;9.44;87.60
17615;BME280;8926;49.720;6.576;2024-01-25T00:22:53;101023.31;;;9.45;87.39
17615;BME280;8926;49.720;6.576;2024-01-25T00:25:18;101028.53;;;9.45;86.97
17615;BME280;8926;49.720;6.576;2024-01-25T00:27:43;101030.22;;;9.46;86.68
17615;BME280;8926;49.720;6.576;2024-01-25T00:30:10;101026.91;;;9.41;87.01
17615;BME280;8926;49.720;6.576;2024-01-25T00:32:35;101030.50;;;9.37;87.70
17615;BME280;8926;49.720;6.576;2024-01-25T00:35:00;101027.94;;;9.36;87.50
17615;BME280;8926;49.720;6.576;2024-01-25T00:37:25;101029.78;;;9.34;88.17
17615;BME280;8926;49.720;6.576;2024-01-25T00:39:51;101028.94;;;9.33;88.34
17615;BME280;8926;49.720;6.576;2024-01-25T00:42:17;101039.25;;;9.36;87.70
17615;BME280;8926;49.720;6.576;2024-01-25T00:44:46;101025.41;;;9.34;87.80
17615;BME280;8926;49.720;6.576;2024-01-25T00:47:11;101025.59;;;9.28;88.57
17615;BME280;8926;49.720;6.576;2024-01-25T00:49:37;101024.78;;;9.26;88.68
17615;BME280;8926;49.720;6.576;2024-01-25T00:52:02;101025.03;;;9.18;88.68
17615;BME280;8926;49.720;6.576;2024-01-25T00:54:29;101019.13;;;9.12;89.38
17615;BME280;8926;49.720;6.576;2024-01-25T00:56:54;101016.69;;;9.07;89.54
17615;BME280;8926;49.720;6.576;2024-01-25T00:59:20;101021.06;;;9.07;89.08
17615;BME280;8926;49.720;6.576;2024-01-25T01:01:48;101019.34;;;9.06;88.96
17615;BME280;8926;49.720;6.576;2024-01-25T01:04:17;101012.50;;;9.02;88.69
17615;BME280;8926;49.720;6.576;2024-01-25T01:06:42;101015.19;;;8.99;89.29
17615;BME280;8926;49.720;6.576;2024-01-25T01:09:08;101017.09;;;8.94;89.66
17615;BME280;8926;49.720;6.576;2024-01-25T01:11:33;101017.97;;;8.93;88.69
17615;BME280;8926;49.720;6.576;2024-01-25T01:13:58;101014.66;;;8.88;89.19
17615;BME280;8926;49.720;6.576;2024-01-25T01:16:23;101019.94;;;8.84;89.64
17615;BME280;8926;49.720;6.576;2024-01-25T01:18:48;101023.44;;;8.83;89.35
17615;BME280;8926;49.720;6.576;2024-01-25T01:21:14;101021.78;;;8.82;89.63
17615;BME280;8926;49.720;6.576;2024-01-25T01:23:39;101026.91;;;8.84;88.85
17615;BME280;8926;49.720;6.576;2024-01-25T01:26:04;101026.25;;;8.77;89.01
17615;BME280;8926;49.720;6.576;2024-01-25T01:28:30;101032.44;;;8.73;89.17
17615;BME280;8926;49.720;6.576;2024-01-25T01:30:55;101026.44;;;8.71;89.59
17615;BME280;8926;49.720;6.576;2024-01-25T01:33:20;101018.63;;;8.71;89.70
17615;BME280;8926;49.720;6.576;2024-01-25T01:35:45;101028.94;;;8.74;89.45
17615;BME280;8926;49.720;6.576;2024-01-25T01:38:11;101042.78;;;8.76;89.60
17615;BME280;8926;49.720;6.576;2024-01-25T01:40:36;101055.69;;;8.81;89.45
17615;BME280;8926;49.720;6.576;2024-01-25T01:43:01;101047.06;;;8.79;89.34
17615;BME280;8926;49.720;6.576;2024-01-25T01:45:27;101044.59;;;8.74;89.18
17615;BME280;8926;49.720;6.576;2024-01-25T01:47:52;101035.94;;;8.72;88.97
17615;BME280;8926;49.720;6.576;2024-01-25T01:50:18;101048.91;;;8.75;89.39
17615;BME280;8926;49.720;6.576;2024-01-25T01:52:43;101049.78;;;8.74;89.41
17615;BME280;8926;49.720;6.576;2024-01-25T01:55:08;101050.78;;;8.70;88.74
17615;BME280;8926;49.720;6.576;2024-01-25T01:57:34;101043.13;;;8.64;89.54
17615;BME280;8926;49.720;6.576;2024-01-25T02:00:00;101044.88;;;8.64;89.20
17615;BME280;8926;49.720;6.576;2024-01-25T02:02:29;101045.75;;;8.63;88.83
17615;BME280;8926;49.720;6.576;2024-01-25T02:07:57;101043.41;;;8.55;89.38
17615;BME280;8926;49.720;6.576;2024-01-25T02:10:22;101041.78;;;8.51;89.52
17615;BME280;8926;49.720;6.576;2024-01-25T02:12:47;101029.81;;;8.44;89.72
17615;BME280;8926;49.720;6.576;2024-01-25T02:15:12;101035.81;;;8.46;90.48
17615;BME280;8926;49.720;6.576;2024-01-25T02:17:38;101046.09;;;8.52;89.79
17615;BME280;8926;49.720;6.576;2024-01-25T02:20:04;101050.41;;;8.53;90.09
17615;BME280;8926;49.720;6.576;2024-01-25T02:22:29;101040.91;;;8.50;89.03
17615;BME280;8926;49.720;6.576;2024-01-25T02:24:55;101047.13;;;8.45;89.62
17615;BME280;8926;49.720;6.576;2024-01-25T02:27:20;101060.28;;;8.40;90.05
17615;BME280;8926;49.720;6.576;2024-01-25T02:29:45;101068.13;;;8.39;89.83
17615;BME280;8926;49.720;6.576;2024-01-25T02:32:10;101069.06;;;8.36;89.26
17615;BME280;8926;49.720;6.576;2024-01-25T02:34:35;101061.28;;;8.35;89.31
17615;BME280;8926;49.720;6.576;2024-01-25T02:37:01;101063.06;;;8.33;90.30
17615;BME280;8926;49.720;6.576;2024-01-25T02:39:26;101063.88;;;8.35;90.24
17615;BME280;8926;49.720;6.576;2024-01-25T02:41:51;101075.19;;;8.34;89.81
17615;BME280;8926;49.720;6.576;2024-01-25T02:44:16;101071.84;;;8.29;89.50
17615;BME280;8926;49.720;6.576;2024-01-25T02:46:41;101072.75;;;8.28;89.51
17615;BME280;8926;49.720;6.576;2024-01-25T02:49:09;101072.84;;;8.23;89.84
17615;BME280;8926;49.720;6.576;2024-01-25T02:51:34;101070.38;;;8.18;89.69
17615;BME280;8926;49.720;6.576;2024-01-25T02:54:00;101072.16;;;8.16;90.47
17615;BME280;8926;49.720;6.576;2024-01-25T02:56:25;101063.59;;;8.11;90.03
17615;BME280;8926;49.720;6.576;2024-01-25T02:58:50;101061.88;;;8.10;90.26
17615;BME280;8926;49.720;6.576;2024-01-25T03:01:15;101080.16;;;8.09;90.49
17615;BME280;8926;49.720;6.576;2024-01-25T03:03:41;101086.19;;;8.09;90.77
17615;BME280;8926;49.720;6.576;2024-01-25T03:06:06;101083.44;;;8.15;91.01
17615;BME280;8926;49.720;6.576;2024-01-25T03:08:31;101079.06;;;8.17;90.66
17615;BME280;8926;49.720;6.576;2024-01-25T03:10:57;101077.28;;;8.20;91.13
17615;BME280;8926;49.720;6.576;2024-01-25T03:13:22;101070.31;;;8.20;90.90
17615;BME280;8926;49.720;6.576;2024-01-25T03:15:47;101062.47;;;8.22;90.83
17615;BME280;8926;49.720;6.576;2024-01-25T03:18:12;101063.38;;;8.21;90.63
17615;BME280;8926;49.720;6.576;2024-01-25T03:20:37;101058.25;;;8.17;90.22
17615;BME280;8926;49.720;6.576;2024-01-25T03:23:03;101058.31;;;8.14;90.83
17615;BME280;8926;49.720;6.576;2024-01-25T03:25:28;101063.53;;;8.14;89.86
17615;BME280;8926;49.720;6.576;2024-01-25T03:27:54;101056.69;;;8.10;90.31
17615;BME280;8926;49.720;6.576;2024-01-25T03:30:19;101047.09;;;8.12;90.63
17615;BME280;8926;49.720;6.576;2024-01-25T03:32:45;101050.63;;;8.10;90.39
17615;BME280;8926;49.720;6.576;2024-01-25T03:35:10;101048.06;;;8.08;90.54
17615;BME280;8926;49.720;6.576;2024-01-25T03:37:36;101043.72;;;8.09;89.90
17615;BME280;8926;49.720;6.576;2024-01-25T03:40:01;101048.94;;;8.07;90.85
17615;BME280;8926;49.720;6.576;2024-01-25T03:42:26;101049.84;;;8.06;90.44
17615;BME280;8926;49.720;6.576;2024-01-25T03:44:51;101048.06;;;8.08;90.45
17615;BME280;8926;49.720;6.576;2024-01-25T03:47:16;101046.34;;;8.07;90.51
17615;BME280;8926;49.720;6.576;2024-01-25T03:49:42;101045.56;;;8.05;90.12
17615;BME280;8926;49.720;6.576;2024-01-25T03:52:07;101053.38;;;8.05;90.50
17615;BME280;8926;49.720;6.576;2024-01-25T03:54:32;101050.75;;;8.05;90.56
17615;BME280;8926;49.720;6.576;2024-01-25T03:56:57;101044.63;;;8.06;90.42
17615;BME280;8926;49.720;6.576;2024-01-25T03:59:22;101042.97;;;8.05;90.89
17615;BME280;8926;49.720;6.576;2024-01-25T04:01:48;101047.38;;;8.02;90.17
17615;BME280;8926;49.720;6.576;2024-01-25T04:04:13;101039.69;;;7.97;90.58
17615;BME280;8926;49.720;6.576;2024-01-25T04:06:40;101044.09;;;7.94;91.16
17615;BME280;8926;49.720;6.576;2024-01-25T04:09:06;101044.28;;;7.86;90.81
17615;BME280;8926;49.720;6.576;2024-01-25T04:11:31;101045.25;;;7.82;89.99
17615;BME280;8926;49.720;6.576;2024-01-25T04:13:57;101039.31;;;7.78;90.08
17615;BME280;8926;49.720;6.576;2024-01-25T04:16:23;101049.84;;;7.72;91.33
17615;BME280;8926;49.720;6.576;2024-01-25T04:18:48;101049.06;;;7.69;90.80
17615;BME280;8926;49.720;6.576;2024-01-25T04:21:13;101055.25;;;7.63;90.61
17615;BME280;8926;49.720;6.576;2024-01-25T04:23:39;101058.97;;;7.53;91.24
17615;BME280;8926;49.720;6.576;2024-01-25T04:26:04;101056.41;;;7.52;90.93
17615;BME280;8926;49.720;6.576;2024-01-25T04:28:29;101059.97;;;7.47;91.29
17615;BME280;8926;49.720;6.576;2024-01-25T04:30:54;101064.34;;;7.45;92.06
17615;BME280;8926;49.720;6.576;2024-01-25T04:33:19;101062.63;;;7.44;91.80
17615;BME280;8926;49.720;6.576;2024-01-25T04:35:45;101060.03;;;7.44;92.16
17615;BME280;8926;49.720;6.576;2024-01-25T04:38:10;101061.75;;;7.45;92.59
17615;BME280;8926;49.720;6.576;2024-01-25T04:40:35;101072.97;;;7.47;92.33
17615;BME280;8926;49.720;6.576;2024-01-25T04:43:01;101077.22;;;7.52;92.00
17615;BME280;8926;49.720;6.576;2024-01-25T04:45:26;101076.25;;;7.54;92.52
17615;BME280;8926;49.720;6.576;2024-01-25T04:47:51;101078.84;;;7.56;92.05
17615;BME280;8926;49.720;6.576;2024-01-25T04:50:17;101078.75;;;7.59;92.42
17615;BME280;8926;49.720;6.576;2024-01-25T04:52:42;101077.84;;;7.61;92.21
17615;BME280;8926;49.720;6.576;2024-01-25T04:55:07;101082.97;;;7.64;92.13
17615;BME280;8926;49.720;6.576;2024-01-25T04:57:32;101086.41;;;7.66;91.98
17615;BME280;8926;49.720;6.576;2024-01-25T04:59:58;101088.25;;;7.61;91.08
17615;BME280;8926;49.720;6.576;2024-01-25T05:02:23;101099.63;;;7.56;90.93
17615;BME280;8926;49.720;6.576;2024-01-25T05:04:48;101097.28;;;7.45;90.27
17615;BME280;8926;49.720;6.576;2024-01-25T05:07:13;101106.25;;;7.30;89.96
17615;BME280;8926;49.720;6.576;2024-01-25T05:09:39;101119.59;;;7.15;89.75
17615;BME280;8926;49.720;6.576;2024-01-25T05:12:07;101109.38;;;7.06;89.69
17615;BME280;8926;49.720;6.576;2024-01-25T05:14:32;101104.31;;;7.00;89.76
17615;BME280;8926;49.720;6.576;2024-01-25T05:16:57;101107.06;;;6.92;90.37
17615;BME280;8926;49.720;6.576;2024-01-25T05:19:22;101118.50;;;6.84;90.98
17615;BME280;8926;49.720;6.576;2024-01-25T05:21:48;101120.31;;;6.78;91.15
17615;BME280;8926;49.720;6.576;2024-01-25T05:24:13;101110.00;;;6.75;91.50
17615;BME280;8926;49.720;6.576;2024-01-25T05:26:38;101106.63;;;6.70;91.60
17615;BME280;8926;49.720;6.576;2024-01-25T05:29:04;101108.41;;;6.68;92.19
17615;BME280;8926;49.720;6.576;2024-01-25T05:31:29;101111.78;;;6.73;91.63
17615;BME280;8926;49.720;6.576;2024-01-25T05:33:55;101099.69;;;6.72;91.87
17615;BME280;8926;49.720;6.576;2024-01-25T05:36:20;101108.28;;;6.74;91.98
17615;BME280;8926;49.720;6.576;2024-01-25T05:38:45;101116.88;;;6.76;92.83
17615;BME280;8926;49.720;6.576;2024-01-25T05:41:10;101109.88;;;6.81;92.57
17615;BME280;8926;49.720;6.576;2024-01-25T05:43:35;101108.16;;;6.80;92.71
17615;BME280;8926;49.720;6.576;2024-01-25T05:46:01;101116.84;;;6.79;93.29
17615;BME280;8926;49.720;6.576;2024-01-25T05:48:26;101114.22;;;6.79;93.36
17615;BME280;8926;49.720;6.576;2024-01-25T05:50:51;101122.03;;;6.79;93.28
17615;BME280;8926;49.720;6.576;2024-01-25T05:53:16;101117.81;;;6.74;92.72
17615;BME280;8926;49.720;6.576;2024-01-25T05:55:44;101111.84;;;6.69;91.63
17615;BME280;8926;49.720;6.576;2024-01-25T05:58:10;101110.28;;;6.60;91.88
17615;BME280;8926;49.720;6.576;2024-01-25T06:00:35;101116.47;;;6.53;92.13
17615;BME280;8926;49.720;6.576;2024-01-25T06:03:00;101110.53;;;6.48;91.96
17615;BME280;8926;49.720;6.576;2024-01-25T06:05:25;101112.28;;;6.46;92.21
17615;BME280;8926;49.720;6.576;2024-01-25T06:07:50;101119.19;;;6.47;92.60
17615;BME280;8926;49.720;6.576;2024-01-25T06:10:16;101122.66;;;6.46;92.22
17615;BME280;8926;49.720;6.576;2024-01-25T06:12:41;101112.38;;;6.40;92.19
17615;BME280;8926;49.720;6.576;2024-01-25T06:15:06;101126.25;;;6.39;92.61
17615;BME280;8926;49.720;6.576;2024-01-25T06:17:32;101129.69;;;6.41;93.01
17615;BME280;8926;49.720;6.576;2024-01-25T06:19:57;101140.06;;;6.41;93.15
17615;BME280;8926;49.720;6.576;2024-01-25T06:22:22;101140.91;;;6.41;93.07
17615;BME280;8926;49.720;6.576;2024-01-25T06:24:47;101133.94;;;6.45;93.70
17615;BME280;8926;49.720;6.576;2024-01-25T06:27:13;101143.44;;;6.46;93.63
17615;BME280;8926;49.720;6.576;2024-01-25T06:29:38;101144.25;;;6.50;93.70
17615;BME280;8926;49.720;6.576;2024-01-25T06:32:03;101135.50;;;6.52;93.62
17615;BME280;8926;49.720;6.576;2024-01-25T06:34:28;101138.88;;;6.57;93.92
17615;BME280;8926;49.720;6.576;2024-01-25T06:36:53;101141.38;;;6.63;93.91
17615;BME280;8926;49.720;6.576;2024-01-25T06:39:19;101141.44;;;6.60;93.86
17615;BME280;8926;49.720;6.576;2024-01-25T06:41:44;101147.59;;;6.55;93.17
17615;BME280;8926;49.720;6.576;2024-01-25T06:44:09;101144.09;;;6.56;93.88
17615;BME280;8926;49.720;6.576;2024-01-25T06:46:35;101150.09;;;6.59;93.44
17615;BME280;8926;49.720;6.576;2024-01-25T06:49:00;101153.59;;;6.58;92.93
17615;BME280;8926;49.720;6.576;2024-01-25T06:51:25;101154.53;;;6.54;93.20
17615;BME280;8926;49.720;6.576;2024-01-25T06:53:50;101161.59;;;6.47;92.77
17615;BME280;8926;49.720;6.576;2024-01-25T06:56:16;101171.16;;;6.44;92.80
17615;BME280;8926;49.720;6.576;2024-01-25T06:58:41;101169.53;;;6.37;92.55
17615;BME280;8926;49.720;6.576;2024-01-25T07:01:07;101178.19;;;6.36;93.00
17615;BME280;8926;49.720;6.576;2024-01-25T07:03:32;101184.22;;;6.38;93.05
17615;BME280;8926;49.720;6.576;2024-01-25T07:05:57;101191.09;;;6.40;93.55
17615;BME280;8926;49.720;6.576;2024-01-25T07:08:22;101187.66;;;6.40;93.13
17615;BME280;8926;49.720;6.576;2024-01-25T07:10:49;101183.34;;;6.39;92.71
17615;BME280;8926;49.720;6.576;2024-01-25T07:13:14;101191.22;;;6.33;92.60
17615;BME280;8926;49.720;6.576;2024-01-25T07:15:39;101190.44;;;6.28;92.96
17615;BME280;8926;49.720;6.576;2024-01-25T07:18:04;101181.78;;;6.29;93.27
17615;BME280;8926;49.720;6.576;2024-01-25T07:20:30;101187.78;;;6.31;93.46
17615;BME280;8926;49.720;6.576;2024-01-25T07:22:57;101186.00;;;6.34;93.80
17615;BME280;8926;49.720;6.576;2024-01-25T07:25:23;101195.44;;;6.40;93.73
17615;BME280;8926;49.720;6.576;2024-01-25T07:27:48;101185.88;;;6.43;92.61
17615;BME280;8926;49.720;6.576;2024-01-25T07:30:14;101190.25;;;6.40;92.34
17615;BME280;8926;49.720;6.576;2024-01-25T07:32:40;101192.06;;;6.35;92.59
17615;BME280;8926;49.720;6.576;2024-01-25T07:35:07;101192.91;;;6.35;92.57
17615;BME280;8926;49.720;6.576;2024-01-25T07:37:32;101194.69;;;6.33;92.69
17615;BME280;8926;49.720;6.576;2024-01-25T07:39:57;101195.53;;;6.34;92.69
17615;BME280;8926;49.720;6.576;2024-01-25T07:42:23;101184.28;;;6.35;91.82
17615;BME280;8926;49.720;6.576;2024-01-25T07:44:48;101193.78;;;6.36;91.19
17615;BME280;8926;49.720;6.576;2024-01-25T07:47:13;101190.28;;;6.37;90.45
17615;BME280;8926;49.720;6.576;2024-01-25T07:49:40;101188.59;;;6.36;89.96
17615;BME280;8926;49.720;6.576;2024-01-25T07:52:05;101188.59;;;6.36;89.97
17615;BME280;8926;49.720;6.576;2024-01-25T07:54:30;101185.09;;;6.37;90.23
17615;BME280;8926;49.720;6.576;2024-01-25T07:56:55;101181.69;;;6.35;90.35
17615;BME280;8926;49.720;6.576;2024-01-25T07:59:20;101185.06;;;6.40;90.35
17615;BME280;8926;49.720;6.576;2024-01-25T08:01:46;101181.34;;;6.53;90.41
17615;BME280;8926;49.720;6.576;2024-01-25T08:04:11;101185.47;;;6.66;89.82
17615;BME280;8926;49.720;6.576;2024-01-25T08:06:36;101179.34;;;6.70;89.42
17615;BME280;8926;49.720;6.576;2024-01-25T08:09:01;101170.53;;;6.77;89.99
17615;BME280;8926;49.720;6.576;2024-01-25T08:11:27;101170.44;;;6.84;90.08
17615;BME280;8926;49.720;6.576;2024-01-25T08:13:53;101172.00;;;6.94;89.92
17615;BME280;8926;49.720;6.576;2024-01-25T08:16:18;101165.84;;;6.98;89.85
17615;BME280;8926;49.720;6.576;2024-01-25T08:18:44;101170.06;;;7.02;89.80
17615;BME280;8926;49.720;6.576;2024-01-25T08:21:10;101168.09;;;7.16;89.92
17615;BME280;8926;49.720;6.576;2024-01-25T08:23:36;101171.41;;;7.24;89.16
17615;BME280;8926;49.720;6.576;2024-01-25T08:26:01;101170.34;;;7.31;88.34
17615;BME280;8926;49.720;6.576;2024-01-25T08:28:26;101168.50;;;7.38;87.95
17615;BME280;8926;49.720;6.576;2024-01-25T08:30:51;101164.94;;;7.42;87.79
17615;BME280;8926;49.720;6.576;2024-01-25T08:33:17;101160.50;;;7.47;87.98
17615;BME280;8926;49.720;6.576;2024-01-25T08:35:42;101151.38;;;7.68;87.95
17615;BME280;8926;49.720;6.576;2024-01-25T08:38:07;101157.88;;;7.87;87.73
17615;BME280;8926;49.720;6.576;2024-01-25T08:40:33;101155.81;;;8.01;86.68
17615;BME280;8926;49.720;6.576;2024-01-25T08:42:58;101153.00;;;8.09;86.75
17615;BME280;8926;49.720;6.576;2024-01-25T08:45:23;101158.84;;;8.20;85.78
17615;BME280;8926;49.720;6.576;2024-01-25T08:47:48;101159.44;;;8.31;85.44
17615;BME280;8926;49.720;6.576;2024-01-25T08:50:14;101168.50;;;8.52;85.18
17615;BME280;8926;49.720;6.576;2024-01-25T08:52:40;101161.97;;;8.68;85.47
17615;BME280;8926;49.720;6.576;2024-01-25T08:55:06;101155.38;;;8.88;85.38
17615;BME280;8926;49.720;6.576;2024-01-25T08:57:31;101149.88;;;9.59;83.10
17615;BME280;8926;49.720;6.576;2024-01-25T08:59:56;101138.28;;;10.98;78.86
17615;BME280;8926;49.720;6.576;2024-01-25T09:02:23;101131.38;;;12.31;72.44
17615;BME280;8926;49.720;6.576;2024-01-25T09:04:51;101132.22;;;13.31;67.77
17615;BME280;8926;49.720;6.576;2024-01-25T09:07:16;101140.03;;;14.06;65.30
17615;BME280;8926;49.720;6.576;2024-01-25T09:09:41;101133.47;;;14.84;62.57
17615;BME280;8926;49.720;6.576;2024-01-25T09:12:07;101120.78;;;15.88;63.45
17615;BME280;8926;49.720;6.576;2024-01-25T09:14:36;101112.22;;;16.74;65.22
17615;BME280;8926;49.720;6.576;2024-01-25T09:17:01;101101.78;;;17.56;63.33
17615;BME280;8926;49.720;6.576;2024-01-25T09:19:26;101102.75;;;18.09;56.78
17615;BME280;8926;49.720;6.576;2024-01-25T09:21:51;101096.16;;;18.42;52.00
17615;BME280;8926;49.720;6.576;2024-01-25T09:24:17;101086.69;;;18.64;50.69
17615;BME280;8926;49.720;6.576;2024-01-25T09:26:42;101091.56;;;18.96;51.35
17615;BME280;8926;49.720;6.576;2024-01-25T09:29:07;101093.09;;;19.11;48.64
17615;BME280;8926;49.720;6.576;2024-01-25T09:31:33;101090.06;;;19.78;50.83
17615;BME280;8926;49.720;6.576;2024-01-25T09:33:59;101103.44;;;20.00;47.69
17615;BME280;8926;49.720;6.576;2024-01-25T09:36:24;101098.16;;;20.11;49.53
17615;BME280;8926;49.720;6.576;2024-01-25T09:38:49;101087.59;;;20.69;48.59
17615;BME280;8926;49.720;6.576;2024-01-25T09:41:14;101087.53;;;21.04;47.75
17615;BME280;8926;49.720;6.576;2024-01-25T09:43:39;101091.41;;;21.22;45.94
17615;BME280;8926;49.720;6.576;2024-01-25T09:46:05;101083.91;;;21.05;46.39
17615;BME280;8926;49.720;6.576;2024-01-25T09:48:32;101096.19;;;20.83;46.42
17615;BME280;8926;49.720;6.576;2024-01-25T09:50:57;101098.13;;;20.70;47.57
17615;BME280;8926;49.720;6.576;2024-01-25T09:53:24;101101.16;;;20.77;46.07
17615;BME280;8926;49.720;6.576;2024-01-25T09:55:56;101100.47;;;20.40;46.45
17615;BME280;8926;49.720;6.576;2024-01-25T09:58:23;101107.88;;;19.76;47.49
17615;BME280;8926;49.720;6.576;2024-01-25T10:00:49;101117.59;;;18.89;50.35
17615;BME280;8926;49.720;6.576;2024-01-25T10:03:15;101109.91;;;18.47;49.92
17615;BME280;8926;49.720;6.576;2024-01-25T10:05:40;101117.34;;;18.02;50.94
17615;BME280;8926;49.720;6.576;2024-01-25T10:08:11;101124.09;;;17.67;52.42
17615;BME280;8926;49.720;6.576;2024-01-25T10:10:37;101128.25;;;17.28;54.56
17615;BME280;8926;49.720;6.576;2024-01-25T10:13:03;101136.84;;;17.17;54.76
17615;BME280;8926;49.720;6.576;2024-01-25T10:15:30;101145.06;;;17.13;54.99
17615;BME280;8926;49.720;6.576;2024-01-25T10:17:55;101141.09;;;17.06;54.51
17615;BME280;8926;49.720;6.576;2024-01-25T10:20:20;101133.53;;;17.00;55.24
17615;BME280;8926;49.720;6.576;2024-01-25T10:22:49;101140.31;;;16.75;55.66
17615;BME280;8926;49.720;6.576;2024-01-25T10:25:14;101128.25;;;16.71;56.63
17615;BME280;8926;49.720;6.576;2024-01-25T10:27:40;101122.06;;;16.86;55.78
17615;BME280;8926;49.720;6.576;2024-01-25T10:30:06;101126.38;;;17.02;56.34
17615;BME280;8926;49.720;6.576;2024-01-25T10:32:32;101127.34;;;17.15;55.64
17615;BME280;8926;49.720;6.576;2024-01-25T10:34:57;101128.44;;;16.96;55.64
17615;BME280;8926;49.720;6.576;2024-01-25T10:37:23;101113.06;;;16.75;56.42
17615;BME280;8926;49.720;6.576;2024-01-25T10:39:49;101122.59;;;16.77;56.49
17615;BME280;8926;49.720;6.576;2024-01-25T10:42:15;101113.13;;;16.59;56.14
17615;BME280;8926;49.720;6.576;2024-01-25T10:44:40;101118.63;;;16.70;56.24
17615;BME280;8926;49.720;6.576;2024-01-25T10:47:06;101118.44;;;16.73;56.23
17615;BME280;8926;49.720;6.576;2024-01-25T10:49:32;101107.88;;;16.73;55.86
17615;BME280;8926;49.720;6.576;2024-01-25T10:51:57;101111.25;;;16.61;56.54
17615;BME280;8926;49.720;6.576;2024-01-25T10:54:23;101106.88;;;16.46;55.97
17615;BME280;8926;49.720;6.576;2024-01-25T10:56:48;101108.38;;;16.06;57.31
17615;BME280;8926;49.720;6.576;2024-01-25T10:59:13;101110.94;;;15.60;58.86
17615;BME280;8926;49.720;6.576;2024-01-25T11:01:44;101107.69;;;15.39;59.38
17615;BME280;8926;49.720;6.576;2024-01-25T11:04:16;101092.53;;;15.11;59.96
17615;BME280;8926;49.720;6.576;2024-01-25T11:06:41;101103.81;;;14.98;61.03
17615;BME280;8926;49.720;6.576;2024-01-25T11:09:07;101107.59;;;14.76;61.35
17615;BME280;8926;49.720;6.576;2024-01-25T11:11:32;101095.00;;;14.66;61.79
17615;BME280;8926;49.720;6.576;2024-01-25T11:13:58;101098.38;;;14.33;62.22
17615;BME280;8926;49.720;6.576;2024-01-25T11:16:30;101098.03;;;13.87;63.96
17615;BME280;8926;49.720;6.576;2024-01-25T11:18:56;101103.13;;;13.73;65.39
17615;BME280;8926;49.720;6.576;2024-01-25T11:24:04;101103.91;;;13.56;65.35
17615;BME280;8926;49.720;6.576;2024-01-25T11:26:32;101103.56;;;13.45;66.30
17615;BME280;8926;49.720;6.576;2024-01-25T11:28:58;101097.75;;;13.39;66.61
17615;BME280;8926;49.720;6.576;2024-01-25T11:31:25;101091.47;;;13.24;66.50
17615;BME280;8926;49.720;6.576;2024-01-25T11:33:50;101093.31;;;13.02;67.94
17615;BME280;8926;49.720;6.576;2024-01-25T11:36:16;101092.03;;;12.91;67.92
17615;BME280;8926;49.720;6.576;2024-01-25T11:38:44;101086.66;;;12.74;68.34
17615;BME280;8926;49.720;6.576;2024-01-25T11:41:10;101080.94;;;12.66;69.70
17615;BME280;8926;49.720;6.576;2024-01-25T11:43:35;101075.94;;;12.60;69.26
17615;BME280;8926;49.720;6.576;2024-01-25T11:46:01;101071.69;;;12.57;69.60
17615;BME280;8926;49.720;6.576;2024-01-25T11:48:27;101071.09;;;12.51;69.51
17615;BME280;8926;49.720;6.576;2024-01-25T11:50:52;101068.50;;;12.31;70.14
17615;BME280;8926;49.720;6.576;2024-01-25T11:53:17;101060.38;;;12.16;70.50
17615;BME280;8926;49.720;6.576;2024-01-25T11:55:42;101065.75;;;12.13;70.94
17615;BME280;8926;49.720;6.576;2024-01-25T11:58:08;101053.81;;;12.06;71.81
17615;BME280;8926;49.720;6.576;2024-01-25T12:00:33;101048.81;;;12.00;71.58
17615;BME280;8926;49.720;6.576;2024-01-25T12:02:58;101041.75;;;12.02;72.02
17615;BME280;8926;49.720;6.576;2024-01-25T12:05:24;101045.28;;;12.01;72.09
17615;BME280;8926;49.720;6.576;2024-01-25T12:07:49;101042.00;;;11.96;72.25
17615;BME280;8926;49.720;6.576;2024-01-25T12:10:17;101043.00;;;11.94;72.30
17615;BME280;8926;49.720;6.576;2024-01-25T12:12:43;101040.75;;;11.84;74.52
17615;BME280;8926;49.720;6.576;2024-01-25T12:15:08;101037.28;;;11.84;73.59
17615;BME280;8926;49.720;6.576;2024-01-25T12:17:34;101021.06;;;11.74;74.38
17615;BME280;8926;49.720;6.576;2024-01-25T12:20:01;101020.31;;;11.71;75.36
17615;BME280;8926;49.720;6.576;2024-01-25T12:22:27;101015.09;;;11.71;74.61
17615;BME280;8926;49.720;6.576;2024-01-25T12:24:53;101016.78;;;11.72;74.51
17615;BME280;8926;49.720;6.576;2024-01-25T12:27:19;101013.53;;;11.67;75.14
17615;BME280;8926;49.720;6.576;2024-01-25T12:29:45;101013.47;;;11.68;74.69
17615;BME280;8926;49.720;6.576;2024-01-25T12:32:10;101011.72;;;11.69;74.95
17615;BME280;8926;49.720;6.576;2024-01-25T12:34:35;101020.72;;;11.62;75.34
17615;BME280;8926;49.720;6.576;2024-01-25T12:37:02;101026.09;;;11.59;75.69
17615;BME280;8926;49.720;6.576;2024-01-25T12:39:28;101008.91;;;11.51;76.44
17615;BME280;8926;49.720;6.576;2024-01-25T12:41:53;101012.03;;;11.39;77.60
17615;BME280;8926;49.720;6.576;2024-01-25T12:44:18;101013.06;;;11.35;78.49
17615;BME280;8926;49.720;6.576;2024-01-25T12:46:43;101010.69;;;11.29;80.19
17615;BME280;8926;49.720;6.576;2024-01-25T12:49:08;101005.34;;;11.32;79.20
17615;BME280;8926;49.720;6.576;2024-01-25T12:51:34;101001.13;;;11.28;80.78
17615;BME280;8926;49.720;6.576;2024-01-25T12:53:59;101001.47;;;11.19;82.00
17615;BME280;8926;49.720;6.576;2024-01-25T12:56:24;101005.28;;;11.12;83.73
17615;BME280;8926;49.720;6.576;2024-01-25T12:58:49;100998.22;;;11.14;83.14
17615;BME280;8926;49.720;6.576;2024-01-25T13:01:14;100996.75;;;11.07;83.78
17615;BME280;8926;49.720;6.576;2024-01-25T13:03:40;100999.47;;;11.04;84.57